Time;durP1;ratioP1;P1;durP2;ratioP2;P2;SDS_P1;SDS_P2;PMS_P1;PMS_P2;Temp;Humidity;BMP_temperature;BMP_pressure;BME280_temperature;BME280_humidity;BME280_pressure;Samples;Min_cycle;Max_cycle;Signal;HPM_P1;HPM_P2
2023/06/02 00:01:17;;;;;;;1.88;0.80;;;21.80;67.10;;;;;;5053240;28;20025;-76
2023/06/02 00:03:44;;;;;;;1.58;0.95;;;21.50;67.50;;;;;;5053424;28;20024;-76
2023/06/02 00:06:14;;;;;;;2.42;0.65;;;21.90;67.30;;;;;;5053203;28;20025;-76
2023/06/02 00:08:40;;;;;;;2.28;0.55;;;21.80;67.10;;;;;;5053057;28;20553;-76
2023/06/02 00:11:09;;;;;;;1.42;0.57;;;21.80;67.20;;;;;;5053403;28;20436;-76
2023/06/02 00:13:35;;;;;;;2.30;0.77;;;21.50;67.10;;;;;;5052849;28;20434;-76
2023/06/02 00:16:03;;;;;;;2.47;0.60;;;21.80;67.20;;;;;;5053234;28;20067;-77
2023/06/02 00:18:28;;;;;;;3.22;0.77;;;21.70;67.60;;;;;;5053070;28;20143;-76
2023/06/02 00:20:56;;;;;;;1.70;0.70;;;21.70;67.20;;;;;;5053000;28;20060;-76
2023/06/02 00:23:22;;;;;;;1.48;0.75;;;21.80;67.50;;;;;;5052835;28;20087;-76
2023/06/02 00:25:48;;;;;;;5.05;1.10;;;21.70;67.40;;;;;;5052775;28;20259;-76
2023/06/02 00:28:14;;;;;;;2.05;0.95;;;22.00;68.00;;;;;;5052748;28;20510;-76
2023/06/02 00:30:39;;;;;;;1.48;0.88;;;21.10;66.80;;;;;;5052576;28;20064;-76
2023/06/02 00:33:05;;;;;;;2.47;0.80;;;21.60;45.20;;;;;;5052477;28;20036;-76
2023/06/02 00:35:30;;;;;;;1.20;0.65;;;21.50;67.40;;;;;;5052629;28;20500;-76
2023/06/02 00:37:57;;;;;;;2.63;0.60;;;;;;;;;;5052672;28;20029;-76
2023/06/02 00:40:23;;;;;;;2.97;0.80;;;21.50;68.50;;;;;;5052639;28;20017;-76
2023/06/02 00:42:49;;;;;;;2.45;0.90;;;21.70;51.60;;;;;;5052315;28;20045;-76
2023/06/02 00:45:16;;;;;;;2.55;0.70;;;21.60;67.20;;;;;;5052418;28;20471;-76
2023/06/02 00:47:42;;;;;;;1.25;0.80;;;21.60;67.30;;;;;;5052300;28;20148;-76
2023/06/02 00:50:08;;;;;;;3.17;0.90;;;21.20;67.50;;;;;;5052608;28;20024;-76
2023/06/02 00:52:36;;;;;;;3.40;1.02;;;21.40;67.40;;;;;;5052523;28;20040;-76
2023/06/02 00:55:03;;;;;;;2.20;1.00;;;21.30;67.40;;;;;;5052383;28;20138;-76
2023/06/02 00:57:34;;;;;;;4.28;0.95;;;21.60;67.50;;;;;;5052568;28;20027;-76
2023/06/02 01:00:03;;;;;;;2.22;0.65;;;21.10;58.70;;;;;;5052324;28;20092;-76
2023/06/02 01:02:29;;;;;;;2.78;1.05;;;21.60;67.60;;;;;;5052220;28;20132;-76
2023/06/02 01:04:57;;;;;;;3.13;0.70;;;21.20;67.30;;;;;;5051904;28;20049;-76
2023/06/02 01:07:25;;;;;;;2.90;1.00;;;21.40;67.90;;;;;;5052127;28;20017;-76
2023/06/02 01:09:59;;;;;;;2.38;0.90;;;21.60;67.50;;;;;;5052193;28;20029;-76
2023/06/02 01:12:26;;;;;;;2.03;0.77;;;21.40;67.40;;;;;;5051658;28;20087;-76
2023/06/02 01:14:51;;;;;;;3.50;0.98;;;21.60;67.70;;;;;;5050609;28;20040;-76
2023/06/02 01:17:17;;;;;;;4.75;1.10;;;21.20;67.40;;;;;;5051719;28;20033;-76
2023/06/02 01:19:46;;;;;;;2.70;0.90;;;21.40;67.50;;;;;;5051788;28;20025;-76
2023/06/02 01:22:19;;;;;;;2.38;1.05;;;21.40;67.50;;;;;;5052217;28;20104;-76
2023/06/02 01:24:47;;;;;;;4.05;1.10;;;21.20;67.60;;;;;;5052380;28;20021;-76
2023/06/02 01:27:12;;;;;;;1.55;0.98;;;21.30;67.50;;;;;;5052066;28;20052;-76
2023/06/02 01:29:39;;;;;;;3.63;1.15;;;21.30;67.70;;;;;;5052121;28;20539;-76
2023/06/02 01:32:12;;;;;;;2.67;0.75;;;21.20;67.50;;;;;;5052038;28;20036;-77
2023/06/02 01:34:44;;;;;;;1.92;0.93;;;21.40;67.80;;;;;;5051916;28;20476;-76
2023/06/02 01:37:10;;;;;;;3.85;1.23;;;21.40;67.70;;;;;;5051914;28;20514;-76
2023/06/02 01:39:38;;;;;;;3.30;1.25;;;20.90;67.40;;;;;;5051803;28;20104;-76
2023/06/02 01:42:05;;;;;;;4.85;1.20;;;20.70;67.50;;;;;;5051775;28;20029;-76
2023/06/02 01:44:32;;;;;;;1.65;0.82;;;21.40;68.00;;;;;;5051797;28;20021;-76
2023/06/02 01:46:57;;;;;;;3.15;1.00;;;21.10;67.80;;;;;;5051788;28;20033;-76
2023/06/02 01:49:23;;;;;;;3.58;0.98;;;20.70;67.60;;;;;;5051973;28;20017;-76
2023/06/02 01:51:49;;;;;;;3.42;1.02;;;21.40;68.10;;;;;;5051706;28;20032;-76
2023/06/02 01:54:15;;;;;;;3.30;1.23;;;21.20;44.80;;;;;;5051578;28;20116;-76
2023/06/02 01:56:41;;;;;;;2.45;1.05;;;21.10;67.80;;;;;;5051650;28;20025;-76
2023/06/02 01:59:07;;;;;;;3.85;1.50;;;21.10;68.00;;;;;;5051515;28;20035;-76
2023/06/02 02:01:33;;;;;;;3.13;1.00;;;21.20;68.00;;;;;;5051467;28;20049;-76
2023/06/02 02:04:00;;;;;;;4.25;0.95;;;21.30;67.90;;;;;;5051469;28;20064;-77
2023/06/02 02:06:29;;;;;;;3.40;0.93;;;21.40;68.30;;;;;;5051633;28;20025;-76
2023/06/02 02:08:56;;;;;;;2.80;0.87;;;21.20;57.90;;;;;;5051634;28;20094;-76
2023/06/02 02:11:22;;;;;;;2.15;0.82;;;21.00;68.10;;;;;;5054066;28;20447;-76
2023/06/02 02:13:48;;;;;;;2.40;0.90;;;21.20;68.30;;;;;;5055178;28;20132;-76
2023/06/02 02:16:14;;;;;;;2.20;0.98;;;21.10;68.40;;;;;;5055380;28;20063;-76
2023/06/02 02:18:40;;;;;;;4.65;1.05;;;21.00;68.50;;;;;;5055327;28;20045;-76
2023/06/02 02:21:06;;;;;;;2.00;0.90;;;20.80;68.10;;;;;;5055185;28;20029;-76
2023/06/02 02:23:31;;;;;;;2.63;0.90;;;20.90;68.30;;;;;;5055246;28;20442;-76
2023/06/02 02:25:57;;;;;;;2.40;0.98;;;20.90;68.40;;;;;;5055594;28;20430;-76
2023/06/02 02:28:23;;;;;;;1.88;0.80;;;21.10;68.40;;;;;;5055017;28;20048;-76
2023/06/02 02:30:49;;;;;;;2.53;0.82;;;20.80;68.50;;;;;;5055359;28;20025;-76
2023/06/02 02:33:16;;;;;;;2.28;0.93;;;20.80;68.10;;;;;;5055315;28;20032;-76
2023/06/02 02:35:43;;;;;;;3.72;1.17;;;;;;;;;;5054995;28;20025;-76
2023/06/02 02:38:08;;;;;;;4.15;1.15;;;20.40;67.90;;;;;;5054728;28;20048;-76
2023/06/02 02:40:34;;;;;;;2.15;1.05;;;20.90;68.20;;;;;;5054804;28;20526;-76
2023/06/02 02:42:59;;;;;;;3.20;1.42;;;21.00;68.50;;;;;;5054737;28;20033;-76
2023/06/02 02:45:25;;;;;;;3.42;1.27;;;21.00;68.30;;;;;;5054637;28;20021;-76
2023/06/02 02:47:51;;;;;;;1.15;0.80;;;20.90;68.60;;;;;;5054923;28;20029;-76
2023/06/02 02:50:16;;;;;;;1.77;0.90;;;20.80;68.40;;;;;;5054661;28;20033;-76
2023/06/02 02:52:42;;;;;;;2.25;1.00;;;21.10;68.40;;;;;;5054472;28;20037;-76
2023/06/02 02:55:08;;;;;;;4.65;1.25;;;20.70;68.10;;;;;;5054537;28;20093;-76
2023/06/02 02:57:33;;;;;;;1.85;0.75;;;20.80;68.10;;;;;;5054513;28;20053;-76
2023/06/02 02:59:59;;;;;;;1.92;1.00;;;20.40;68.20;;;;;;5054404;28;20033;-76
2023/06/02 03:02:24;;;;;;;2.40;1.00;;;20.80;68.20;;;;;;5054576;28;20021;-76
2023/06/02 03:04:51;;;;;;;1.15;0.63;;;20.80;68.50;;;;;;5054402;28;20096;-76
2023/06/02 03:07:18;;;;;;;2.45;0.80;;;20.90;68.60;;;;;;5054752;28;20043;-76
2023/06/02 03:09:44;;;;;;;2.40;0.77;;;20.50;68.50;;;;;;5054873;28;20474;-76
2023/06/02 03:12:10;;;;;;;2.50;0.85;;;20.80;68.60;;;;;;5054277;28;20115;-76
2023/06/02 03:14:36;;;;;;;2.00;0.70;;;20.70;68.50;;;;;;5054275;28;20094;-76
2023/06/02 03:17:02;;;;;;;2.60;0.88;;;20.70;68.60;;;;;;5054549;28;20029;-76
2023/06/02 03:19:29;;;;;;;2.90;0.90;;;20.90;61.00;;;;;;5054142;28;20056;-76
2023/06/02 03:21:58;;;;;;;1.75;0.90;;;20.80;68.80;;;;;;5054012;28;20040;-76
2023/06/02 03:24:24;;;;;;;2.30;0.90;;;20.90;68.60;;;;;;5054422;28;20025;-76
2023/06/02 03:26:55;;;;;;;2.47;0.93;;;20.60;68.60;;;;;;5054135;28;20013;-76
2023/06/02 03:29:21;;;;;;;1.85;0.80;;;20.60;68.50;;;;;;5054280;28;20429;-76
2023/06/02 03:31:51;;;;;;;1.67;0.80;;;20.80;68.50;;;;;;5054128;28;20017;-76
2023/06/02 03:34:17;;;;;;;3.58;0.93;;;;;;;;;;5054470;28;20021;-76
2023/06/02 03:36:43;;;;;;;1.38;0.70;;;20.50;68.10;;;;;;5053780;28;20116;-76
2023/06/02 03:39:10;;;;;;;1.20;0.70;;;20.90;68.40;;;;;;5053712;28;20025;-76
2023/06/02 03:41:37;;;;;;;2.58;1.10;;;20.80;68.50;;;;;;5054052;28;20043;-76
2023/06/02 03:44:06;;;;;;;1.45;0.80;;;20.70;68.10;;;;;;5053968;28;20357;-76
2023/06/02 03:46:33;;;;;;;1.73;0.73;;;20.40;67.70;;;;;;5053354;28;20483;-76
2023/06/02 03:48:59;;;;;;;1.90;0.68;;;20.80;68.30;;;;;;5053746;28;20021;-76
2023/06/02 03:51:25;;;;;;;2.67;0.90;;;20.20;68.00;;;;;;5053387;28;20025;-76
2023/06/02 03:53:51;;;;;;;1.88;1.00;;;20.80;68.40;;;;;;5053517;28;20052;-76
2023/06/02 03:56:19;;;;;;;3.50;0.80;;;20.30;66.50;;;;;;5053473;28;20025;-76
2023/06/02 03:58:45;;;;;;;2.22;0.68;;;20.50;68.00;;;;;;5053419;28;20023;-77
2023/06/02 04:01:12;;;;;;;1.42;0.90;;;20.50;68.00;;;;;;5053379;28;20465;-76
2023/06/02 04:03:37;;;;;;;3.03;0.82;;;20.50;68.30;;;;;;5053324;28;20414;-76
2023/06/02 04:06:05;;;;;;;1.27;0.70;;;20.50;68.20;;;;;;5053576;28;20070;-76
2023/06/02 04:08:35;;;;;;;2.67;1.00;;;20.70;63.30;;;;;;5053312;28;20033;-76
2023/06/02 04:11:01;;;;;;;3.30;1.07;;;20.50;68.20;;;;;;5053302;28;20384;-76
2023/06/02 04:13:28;;;;;;;1.33;0.70;;;;;;;;;;5052736;28;20781;-76
2023/06/02 04:15:54;;;;;;;2.20;0.60;;;20.50;45.10;;;;;;5052907;28;20036;-76
2023/06/02 04:18:20;;;;;;;1.88;0.70;;;20.70;69.00;;;;;;5053225;28;20064;-76
2023/06/02 04:20:46;;;;;;;1.90;0.60;;;20.40;68.10;;;;;;5053194;28;20044;-76
2023/06/02 04:23:12;;;;;;;1.77;0.80;;;20.50;68.20;;;;;;5052943;28;20472;-76
2023/06/02 04:25:38;;;;;;;1.60;0.75;;;20.40;68.20;;;;;;5052847;28;20025;-76
2023/06/02 04:28:05;;;;;;;1.58;0.68;;;20.20;67.90;;;;;;5053205;28;20071;-76
2023/06/02 04:30:31;;;;;;;2.63;0.93;;;20.60;68.20;;;;;;5052897;28;20472;-76
2023/06/02 04:32:57;;;;;;;2.08;0.85;;;20.60;68.30;;;;;;5052153;28;20033;-76
2023/06/02 04:35:23;;;;;;;2.17;1.17;;;20.60;68.40;;;;;;5053207;28;20025;-76
2023/06/02 04:37:49;;;;;;;1.73;0.73;;;20.70;68.40;;;;;;5052743;28;20511;-76
2023/06/02 04:40:16;;;;;;;2.92;0.85;;;;;;;;;;5053049;28;20216;-76
2023/06/02 04:42:42;;;;;;;4.13;0.90;;;20.30;55.00;;;;;;5052798;28;20040;-76
2023/06/02 04:45:15;;;;;;;2.63;0.85;;;20.50;68.00;;;;;;5052752;28;20017;-76
2023/06/02 04:47:42;;;;;;;2.95;1.02;;;20.40;68.00;;;;;;5052763;28;20111;-76
2023/06/02 04:50:12;;;;;;;2.20;0.73;;;20.60;68.50;;;;;;5052794;28;20028;-76
2023/06/02 04:52:39;;;;;;;1.95;0.88;;;20.50;68.20;;;;;;5052397;28;20025;-77
2023/06/02 04:55:08;;;;;;;1.38;0.80;;;20.50;68.40;;;;;;5052474;28;20025;-76
2023/06/02 04:57:35;;;;;;;2.58;1.00;;;20.00;67.90;;;;;;5053086;28;20119;-76
2023/06/02 05:00:06;;;;;;;2.63;0.85;;;20.30;67.90;;;;;;5052631;28;20071;-76
2023/06/02 05:02:32;;;;;;;2.83;0.90;;;18.70;66.90;;;;;;5052210;28;20029;-77
2023/06/02 05:04:58;;;;;;;2.28;0.77;;;20.40;68.20;;;;;;5052535;28;20021;-76
2023/06/02 05:07:24;;;;;;;3.38;1.17;;;20.30;67.90;;;;;;5052491;28;20029;-77
2023/06/02 05:09:50;;;;;;;2.97;0.80;;;20.40;68.30;;;;;;5052024;28;20031;-76
2023/06/02 05:12:18;;;;;;;1.95;0.80;;;20.40;68.00;;;;;;5051944;28;20047;-77
2023/06/02 05:14:44;;;;;;;2.78;0.70;;;20.40;68.10;;;;;;5051938;28;20107;-77
2023/06/02 05:17:10;;;;;;;1.90;0.68;;;20.60;68.60;;;;;;5052003;28;20479;-76
2023/06/02 05:19:39;;;;;;;2.78;1.08;;;20.40;68.10;;;;;;5051982;28;20459;-77
2023/06/02 05:22:05;;;;;;;2.77;1.30;;;20.30;45.70;;;;;;5051882;28;20029;-76
2023/06/02 05:24:31;;;;;;;1.83;1.05;;;20.40;68.10;;;;;;5051938;28;20367;-76
2023/06/02 05:26:56;;;;;;;3.80;0.95;;;20.00;68.10;;;;;;5051837;28;20029;-76
2023/06/02 05:29:22;;;;;;;1.73;0.70;;;19.80;67.80;;;;;;5051865;28;20029;-76
2023/06/02 05:31:47;;;;;;;4.43;1.00;;;20.20;68.10;;;;;;5050538;28;20021;-76
2023/06/02 05:34:13;;;;;;;3.70;1.10;;;20.30;68.30;;;;;;5051856;28;20434;-77
2023/06/02 05:36:39;;;;;;;2.05;0.93;;;20.10;68.10;;;;;;5051794;28;20465;-75
2023/06/02 05:39:04;;;;;;;2.70;1.15;;;20.20;67.90;;;;;;5058287;28;20033;-75
2023/06/02 05:41:30;;;;;;;2.08;0.73;;;20.20;68.30;;;;;;5053159;28;20071;-77
2023/06/02 05:43:55;;;;;;;2.38;0.70;;;19.80;67.80;;;;;;5051902;28;20029;-76
2023/06/02 05:46:24;;;;;;;2.45;0.85;;;20.10;68.10;;;;;;5056253;28;20098;-76
2023/06/02 05:48:50;;;;;;;2.70;0.95;;;20.30;68.20;;;;;;5056163;28;20112;-76
2023/06/02 05:51:16;;;;;;;2.88;0.93;;;20.30;68.40;;;;;;5056041;28;20052;-76
2023/06/02 05:53:41;;;;;;;2.97;0.80;;;20.30;68.30;;;;;;5055695;28;20051;-77
2023/06/02 05:56:07;;;;;;;3.35;0.95;;;20.10;68.30;;;;;;5055635;28;20494;-76
2023/06/02 05:58:37;;;;;;;1.92;0.90;;;20.30;68.40;;;;;;5037692;28;20059;-76
2023/06/02 06:01:03;;;;;;;2.28;1.00;;;19.90;68.20;;;;;;5055699;28;20057;-75
2023/06/02 06:03:29;;;;;;;3.00;1.05;;;20.20;68.30;;;;;;5055425;28;20048;-75
2023/06/02 06:05:54;;;;;;;3.45;0.93;;;20.10;68.10;;;;;;5055573;28;20017;-76
2023/06/02 06:08:20;;;;;;;3.20;1.20;;;20.30;68.50;;;;;;5055514;28;20553;-76
2023/06/02 06:10:46;;;;;;;3.67;1.25;;;20.00;68.10;;;;;;5056399;28;20025;-76
2023/06/02 06:13:12;;;;;;;3.22;1.02;;;20.20;68.20;;;;;;5055649;28;20084;-75
2023/06/02 06:15:38;;;;;;;2.72;0.88;;;20.40;68.50;;;;;;5055642;28;20106;-73
2023/06/02 06:18:05;;;;;;;2.40;0.90;;;;;;;;;;5055772;28;20383;-75
2023/06/02 06:20:31;;;;;;;2.40;0.90;;;19.90;68.30;;;;;;5055195;28;20025;-75
2023/06/02 06:22:57;;;;;;;3.22;1.23;;;20.20;69.00;;;;;;5055341;28;20021;-75
2023/06/02 06:25:23;;;;;;;2.33;0.90;;;20.20;69.20;;;;;;5055394;28;20013;-75
2023/06/02 06:27:49;;;;;;;2.05;0.98;;;20.10;69.00;;;;;;5055248;28;20467;-76
2023/06/02 06:30:15;;;;;;;3.53;0.80;;;20.20;69.40;;;;;;5055035;28;20539;-76
2023/06/02 06:32:41;;;;;;;3.10;1.10;;;20.10;69.40;;;;;;5055228;28;20098;-77
2023/06/02 06:35:07;;;;;;;2.72;1.20;;;20.10;69.30;;;;;;5054717;28;20013;-75
2023/06/02 06:37:33;;;;;;;4.07;1.00;;;20.00;69.20;;;;;;5054877;28;20081;-75
2023/06/02 06:39:59;;;;;;;4.50;1.40;;;20.00;69.40;;;;;;5054890;28;20025;-78
2023/06/02 06:42:25;;;;;;;1.52;0.98;;;20.10;69.80;;;;;;5054865;28;20036;-76
2023/06/02 06:44:51;;;;;;;2.13;0.85;;;20.10;70.00;;;;;;5054807;28;20071;-77
2023/06/02 06:47:18;;;;;;;4.05;0.90;;;20.10;69.50;;;;;;5054716;28;20033;-77
2023/06/02 06:49:43;;;;;;;2.85;0.93;;;20.00;57.40;;;;;;5054545;28;20336;-76
2023/06/02 06:52:10;;;;;;;2.13;0.95;;;20.00;69.20;;;;;;5054479;28;20029;-75
2023/06/02 06:54:35;;;;;;;2.35;0.75;;;19.80;69.10;;;;;;5054722;28;20035;-75
2023/06/02 06:57:01;;;;;;;4.25;1.10;;;20.20;69.60;;;;;;5053759;28;20033;-75
2023/06/02 06:59:27;;;;;;;4.82;1.10;;;20.00;69.30;;;;;;5054672;28;20025;-76
2023/06/02 07:01:53;;;;;;;3.90;1.10;;;20.10;69.30;;;;;;5054913;28;20029;-77
2023/06/02 07:04:20;;;;;;;3.25;0.90;;;20.10;69.10;;;;;;5054595;28;20095;-76
2023/06/02 07:06:46;;;;;;;2.72;1.17;;;20.20;69.10;;;;;;5054658;28;20036;-81
2023/06/02 07:09:12;;;;;;;2.83;1.20;;;19.70;69.00;;;;;;5053026;28;20028;-80
2023/06/02 07:11:38;;;;;;;2.08;0.88;;;19.60;69.00;;;;;;5054459;28;20383;-81
2023/06/02 07:14:04;;;;;;;6.97;1.10;;;20.20;69.30;;;;;;5054067;28;20120;-80
2023/06/02 07:16:30;;;;;;;3.35;1.27;;;20.30;69.50;;;;;;5054191;28;20514;-81
2023/06/02 07:18:55;;;;;;;3.20;0.95;;;20.10;69.40;;;;;;5054179;28;20070;-81
2023/06/02 07:21:21;;;;;;;4.65;1.20;;;20.00;69.30;;;;;;5053961;28;20518;-81
2023/06/02 07:23:47;;;;;;;4.35;1.10;;;19.90;69.70;;;;;;5054167;28;20135;-81
2023/06/02 07:26:12;;;;;;;5.60;1.13;;;19.80;69.50;;;;;;5053985;28;20025;-81
2023/06/02 07:28:38;;;;;;;3.47;1.33;;;20.20;69.80;;;;;;5053964;28;20029;-81
2023/06/02 07:31:04;;;;;;;3.83;1.08;;;21.00;47.20;;;;;;5053799;28;20033;-81
2023/06/02 07:33:30;;;;;;;4.00;1.10;;;19.90;69.80;;;;;;5053898;28;20029;-81
2023/06/02 07:35:56;;;;;;;2.65;1.15;;;20.20;61.00;;;;;;5053729;28;20051;-80
2023/06/02 07:38:22;;;;;;;3.65;1.05;;;20.00;69.70;;;;;;5053641;28;20510;-81
2023/06/02 07:40:48;;;;;;;3.55;1.20;;;19.80;69.30;;;;;;5053766;28;20021;-81
2023/06/02 07:43:13;;;;;;;2.30;1.00;;;19.70;69.80;;;;;;5053791;28;20029;-81
2023/06/02 07:45:39;;;;;;;4.65;1.15;;;20.10;69.70;;;;;;5053554;28;20040;-80
2023/06/02 07:48:05;;;;;;;4.55;1.40;;;20.10;69.80;;;;;;5053577;28;20032;-81
2023/06/02 07:50:30;;;;;;;2.80;1.10;;;20.00;69.70;;;;;;5053431;28;20021;-81
2023/06/02 07:52:56;;;;;;;3.80;1.10;;;20.20;69.80;;;;;;5053360;28;20033;-81
2023/06/02 07:55:22;;;;;;;3.05;0.90;;;20.20;69.80;;;;;;5053548;28;20024;-81
2023/06/02 07:57:48;;;;;;;4.03;1.23;;;20.20;70.20;;;;;;5053299;28;20032;-80
2023/06/02 08:00:15;;;;;;;2.83;0.90;;;19.90;69.80;;;;;;5053360;28;20154;-81
2023/06/02 08:02:48;;;;;;;3.72;1.23;;;19.60;69.70;;;;;;5052072;28;20066;-82
2023/06/02 08:05:15;;;;;;;2.72;0.73;;;20.10;69.80;;;;;;5053550;28;20025;-76
2023/06/02 08:07:41;;;;;;;1.92;0.70;;;20.20;70.20;;;;;;5053123;28;20040;-82
2023/06/02 08:10:07;;;;;;;3.38;1.20;;;20.20;56.40;;;;;;5053250;28;20021;-82
2023/06/02 08:12:33;;;;;;;3.65;0.93;;;19.70;69.50;;;;;;5052656;28;20110;-79
2023/06/02 08:14:59;;;;;;;3.17;1.15;;;20.00;69.70;;;;;;5052984;28;20476;-78
2023/06/02 08:17:30;;;;;;;3.67;0.90;;;20.00;47.50;;;;;;5053811;28;20028;-80
2023/06/02 08:20:00;;;;;;;2.83;1.20;;;20.10;47.50;;;;;;5053991;28;20025;-80
2023/06/02 08:22:27;;;;;;;5.00;1.35;;;20.00;69.60;;;;;;5052843;28;20100;-79
2023/06/02 08:24:53;;;;;;;3.70;1.27;;;20.00;47.60;;;;;;5052871;28;20391;-78
2023/06/02 08:27:20;;;;;;;4.72;1.17;;;20.00;69.90;;;;;;5052684;28;20029;-78
2023/06/02 08:29:46;;;;;;;6.28;1.23;;;19.90;69.80;;;;;;5052773;28;20052;-81
2023/06/02 08:32:12;;;;;;;2.80;1.13;;;20.10;47.70;;;;;;5052763;28;20064;-81
2023/06/02 08:34:41;;;;;;;3.47;0.98;;;20.20;70.10;;;;;;5053005;28;20048;-81
2023/06/02 08:37:09;;;;;;;3.83;1.20;;;19.90;70.30;;;;;;5051776;28;20123;-75
2023/06/02 08:39:35;;;;;;;4.18;1.33;;;20.30;70.00;;;;;;5052966;28;20021;-78
2023/06/02 08:42:02;;;;;;;4.50;1.27;;;20.20;70.00;;;;;;5052913;28;20074;-78
2023/06/02 08:44:29;;;;;;;3.42;1.10;;;20.30;70.30;;;;;;5052621;28;20024;-78
2023/06/02 08:46:57;;;;;;;4.75;1.38;;;20.20;70.30;;;;;;5052392;28;20036;-80
2023/06/02 08:49:25;;;;;;;3.95;1.15;;;20.10;70.30;;;;;;5052361;28;20132;-80
2023/06/02 08:51:54;;;;;;;4.32;1.20;;;20.30;70.20;;;;;;5050999;28;20033;-79
2023/06/02 08:54:20;;;;;;;3.17;1.27;;;20.20;70.30;;;;;;5052457;28;20021;-79
2023/06/02 08:56:49;;;;;;;3.40;0.90;;;20.20;70.10;;;;;;5052781;28;20092;-79
2023/06/02 08:59:19;;;;;;;4.82;1.23;;;20.10;70.20;;;;;;5052517;28;20112;-79
2023/06/02 09:01:47;;;;;;;3.58;1.13;;;20.30;70.20;;;;;;5052315;28;20021;-79
2023/06/02 09:04:13;;;;;;;4.53;1.17;;;20.20;47.80;;;;;;5052570;28;20029;-79
2023/06/02 09:06:39;;;;;;;8.18;1.30;;;20.30;70.10;;;;;;5052634;28;20360;-79
2023/06/02 09:09:06;;;;;;;5.80;1.20;;;19.70;70.10;;;;;;5052461;28;20025;-79
2023/06/02 09:11:32;;;;;;;2.90;1.17;;;20.10;70.20;;;;;;5052475;28;20376;-79
2023/06/02 09:13:59;;;;;;;2.08;1.10;;;20.40;70.20;;;;;;5052227;28;20076;-79
2023/06/02 09:16:38;;;;;;;5.05;1.15;;;19.80;69.90;;;;;;5052169;28;20021;-78
2023/06/02 09:19:04;;;;;;;3.63;1.05;;;20.20;70.20;;;;;;5051438;28;20025;-78
2023/06/02 09:21:33;;;;;;;2.63;1.30;;;19.80;70.10;;;;;;5052119;28;20021;-78
2023/06/02 09:24:01;;;;;;;3.78;1.33;;;20.10;70.40;;;;;;5051857;28;20021;-78
2023/06/02 09:26:30;;;;;;;2.95;0.98;;;20.20;70.60;;;;;;5051887;28;20021;-78
2023/06/02 09:29:04;;;;;;;4.57;1.50;;;20.20;70.30;;;;;;5052090;28;20083;-78
2023/06/02 09:31:47;;;;;;;3.33;1.30;;;20.40;70.50;;;;;;5052187;28;20357;-78
2023/06/02 09:34:14;;;;;;;3.55;1.25;;;20.20;70.50;;;;;;5052164;28;20033;-78
2023/06/02 09:36:40;;;;;;;5.05;1.20;;;20.40;70.60;;;;;;5052044;28;20025;-78
2023/06/02 09:39:10;;;;;;;3.72;1.13;;;20.40;70.70;;;;;;5051953;28;20158;-78
2023/06/02 09:41:40;;;;;;;4.53;1.65;;;20.20;70.50;;;;;;5051714;28;20028;-78
2023/06/02 09:44:13;;;;;;;5.45;1.13;;;20.50;71.00;;;;;;5051758;28;20535;-78
2023/06/02 09:46:41;;;;;;;2.92;1.00;;;20.20;70.50;;;;;;5051678;28;20032;-78
2023/06/02 09:49:07;;;;;;;4.20;1.27;;;20.30;70.40;;;;;;5051667;28;20040;-78
2023/06/02 09:51:33;;;;;;;3.95;1.38;;;20.10;70.40;;;;;;5051758;28;20024;-77
2023/06/02 09:53:59;;;;;;;3.78;1.25;;;20.20;70.30;;;;;;5051823;28;20032;-77
2023/06/02 09:56:28;;;;;;;4.20;1.10;;;20.40;70.70;;;;;;5051350;28;20029;-75
2023/06/02 09:58:54;;;;;;;2.15;1.10;;;20.40;70.70;;;;;;5051588;28;20384;-76
2023/06/02 10:01:21;;;;;;;3.38;1.05;;;20.30;70.80;;;;;;5051566;28;20460;-75
2023/06/02 10:03:47;;;;;;;4.30;1.02;;;20.30;70.60;;;;;;5051772;28;20112;-75
2023/06/02 10:06:41;;;;;;;2.55;0.90;;;20.50;70.80;;;;;;5051808;28;20188;-76
2023/06/02 10:09:22;;;;;;;3.28;0.98;;;20.30;70.60;;;;;;5051858;28;20033;-77
2023/06/02 10:12:25;;;;;;;2.38;1.15;;;20.30;48.50;;;;;;5051426;28;20025;-81
2023/06/02 10:15:00;;;;;;;3.70;1.15;;;20.50;70.60;;;;;;5051468;28;20124;-81
2023/06/02 10:17:40;;;;;;;4.30;1.30;;;20.30;70.40;;;;;;5051803;28;20442;-82
2023/06/02 10:20:12;;;;;;;;;;;20.40;48.50;;;;;;5051941;28;20029;-82
2023/06/02 10:22:50;;;;;;;3.90;1.30;;;20.50;70.60;;;;;;5051481;28;19932;-82
2023/06/02 10:25:27;;;;;;;2.40;1.05;;;20.40;48.40;;;;;;5051587;28;20028;-82
2023/06/02 10:27:53;;;;;;;2.58;1.25;;;20.50;70.60;;;;;;5051488;28;20072;-82
2023/06/02 10:30:24;;;;;;;2.65;1.20;;;20.70;70.70;;;;;;5051371;28;20096;-81
2023/06/02 10:32:51;;;;;;;3.75;1.25;;;20.60;70.40;;;;;;5054201;28;20033;-83
2023/06/02 10:35:17;;;;;;;4.53;0.90;;;20.30;62.30;;;;;;5055077;28;20128;-82
2023/06/02 10:37:44;;;;;;;3.72;1.35;;;20.30;70.40;;;;;;5055317;28;20108;-81
2023/06/02 10:40:10;;;;;;;2.90;1.13;;;20.70;70.20;;;;;;5055086;28;20459;-80
2023/06/02 10:42:37;;;;;;;4.57;1.13;;;20.70;70.40;;;;;;5054855;28;20029;-80
2023/06/02 10:45:20;;;;;;;2.83;1.08;;;20.50;70.20;;;;;;5054582;28;20057;-80
2023/06/02 10:47:46;;;;;;;2.47;1.02;;;20.70;70.50;;;;;;5054565;28;20021;-80
2023/06/02 10:50:14;;;;;;;1.35;0.75;;;20.80;70.50;;;;;;5054600;28;20387;-80
2023/06/02 10:52:58;;;;;;;2.75;0.95;;;20.80;70.40;;;;;;5054616;28;20024;-80
2023/06/02 10:55:30;;;;;;;2.00;1.05;;;20.30;70.40;;;;;;5054792;28;20074;-80
2023/06/02 10:58:07;;;;;;;3.55;1.08;;;20.80;70.50;;;;;;5054696;28;20069;-80
2023/06/02 11:00:36;;;;;;;4.40;1.38;;;20.50;69.90;;;;;;5054798;28;20036;-80
2023/06/02 11:03:21;;;;;;;5.97;1.23;;;20.80;70.40;;;;;;5054556;28;20086;-80
2023/06/02 11:05:49;;;;;;;2.83;1.05;;;20.80;70.70;;;;;;5054440;28;20104;-80
2023/06/02 11:08:17;;;;;;;3.97;1.20;;;20.80;70.60;;;;;;5054436;28;20037;-80
2023/06/02 11:10:48;;;;;;;3.67;1.30;;;20.60;70.00;;;;;;5053947;28;20036;-80
2023/06/02 11:13:16;;;;;;;4.20;1.17;;;20.80;70.40;;;;;;5053687;28;20495;-80
2023/06/02 11:16:02;;;;;;;5.18;1.48;;;21.00;70.50;;;;;;5053951;28;20036;-80
2023/06/02 11:18:28;;;;;;;2.80;1.00;;;20.60;70.40;;;;;;5053744;28;20021;-80
2023/06/02 11:20:56;;;;;;;1.65;1.00;;;20.90;70.50;;;;;;5053887;28;20104;-80
2023/06/02 11:23:23;;;;;;;3.30;1.23;;;21.00;70.60;;;;;;5054179;28;20032;-80
2023/06/02 11:26:02;;;;;;;2.25;1.10;;;20.90;70.60;;;;;;5053978;28;20029;-80
2023/06/02 11:28:28;;;;;;;2.60;1.00;;;21.00;70.60;;;;;;5054099;28;20417;-80
2023/06/02 11:31:13;;;;;;;3.60;1.17;;;20.80;70.40;;;;;;5053886;28;20021;-80
2023/06/02 11:33:51;;;;;;;3.72;1.23;;;20.80;70.50;;;;;;5053968;28;20047;-80
2023/06/02 11:36:24;;;;;;;2.70;0.90;;;20.90;70.20;;;;;;5053966;28;20040;-81
2023/06/02 11:38:49;;;;;;;4.47;1.20;;;20.60;70.20;;;;;;5054111;28;20387;-80
2023/06/02 11:41:17;;;;;;;2.30;0.98;;;21.00;70.50;;;;;;5053746;28;20036;-80
2023/06/02 11:43:50;;;;;;;3.00;1.10;;;20.80;70.40;;;;;;5053671;28;20356;-80
2023/06/02 11:46:19;;;;;;;3.50;1.10;;;21.10;70.40;;;;;;5053927;28;20037;-80
2023/06/02 11:48:46;;;;;;;6.60;1.38;;;21.00;70.30;;;;;;5053966;28;20017;-80
2023/06/02 11:51:13;;;;;;;3.17;0.90;;;20.70;70.20;;;;;;5053485;28;20212;-80
2023/06/02 11:53:49;;;;;;;3.03;1.08;;;20.60;70.00;;;;;;5053277;28;20513;-80
2023/06/02 11:56:16;;;;;;;3.30;0.93;;;21.00;48.30;;;;;;5053375;28;20032;-80
2023/06/02 11:58:42;;;;;;;2.35;0.95;;;20.80;69.90;;;;;;5053452;28;20021;-80
2023/06/02 12:01:15;;;;;;;2.78;1.10;;;21.30;70.00;;;;;;5053337;28;20024;-80
2023/06/02 12:04:03;;;;;;;2.15;0.93;;;21.30;69.90;;;;;;5053540;28;20028;-80
2023/06/02 12:06:46;;;;;;;4.90;1.30;;;21.30;70.20;;;;;;5052905;28;20032;-80
2023/06/02 12:09:15;;;;;;;2.90;1.08;;;21.20;48.10;;;;;;5053299;28;20033;-80
2023/06/02 12:11:42;;;;;;;2.63;1.20;;;21.00;70.00;;;;;;5052778;28;20108;-80
2023/06/02 12:14:09;;;;;;;3.03;1.42;;;21.30;48.20;;;;;;5052832;28;20110;-80
2023/06/02 12:16:40;;;;;;;3.65;1.25;;;21.10;69.70;;;;;;5052955;28;20508;-80
2023/06/02 12:19:20;;;;;;;4.40;1.20;;;21.40;70.10;;;;;;5053262;28;20456;-81
2023/06/02 12:21:47;;;;;;;2.60;1.17;;;21.70;70.30;;;;;;5053115;28;20021;-80
2023/06/02 12:24:34;;;;;;;2.85;1.10;;;21.70;69.80;;;;;;5053164;28;20064;-80
2023/06/02 12:27:01;;;;;;;3.65;1.20;;;21.60;69.50;;;;;;5053045;28;20024;-80
2023/06/02 12:29:27;;;;;;;4.85;1.20;;;21.80;69.30;;;;;;5052999;28;20024;-80
2023/06/02 12:32:08;;;;;;;2.70;1.33;;;21.50;69.30;;;;;;5052931;28;20029;-80
2023/06/02 12:34:34;;;;;;;;;;;21.60;47.70;;;;;;5053416;28;20048;-80
2023/06/02 12:37:01;;;;;;;2.83;0.95;;;21.80;47.50;;;;;;5052911;28;19905;-80
2023/06/02 12:39:27;;;;;;;4.30;1.27;;;21.90;69.00;;;;;;5052877;28;20096;-80
2023/06/02 12:41:53;;;;;;;3.38;1.10;;;22.10;68.50;;;;;;5052821;28;20017;-80
2023/06/02 12:44:19;;;;;;;2.65;1.30;;;22.00;68.20;;;;;;5053175;28;20104;-79
2023/06/02 12:46:47;;;;;;;3.08;0.95;;;22.20;68.40;;;;;;5052237;28;20021;-80
2023/06/02 12:49:13;;;;;;;3.85;1.20;;;21.90;68.10;;;;;;5052769;28;20029;-80
2023/06/02 12:51:39;;;;;;;4.22;1.58;;;22.50;68.10;;;;;;5052399;28;20464;-80
2023/06/02 12:54:05;;;;;;;3.25;1.10;;;;;;;;;;5052179;28;20033;-80